Time;durP1;ratioP1;P1;durP2;ratioP2;P2;SDS_P1;SDS_P2;PMS_P1;PMS_P2;Temp;Humidity;BMP_temperature;BMP_pressure;BME280_temperature;BME280_humidity;BME280_pressure;Samples;Min_cycle;Max_cycle;Signal;HPM_P1;HPM_P2
2023/03/19 00:01:30;;;;;;;14.38;9.85;;;;;;;;;;5073685;28;20408;-84
2023/03/19 00:03:56;;;;;;;14.70;9.60;;;;;;;;;;5073709;28;20817;-84
2023/03/19 00:06:22;;;;;;;11.10;7.75;;;;;;;;;;5073580;28;20417;-84
2023/03/19 00:08:48;;;;;;;10.63;7.35;;;;;;;;;;5073469;28;20387;-84
2023/03/19 00:11:14;;;;;;;10.00;7.80;;;;;;;;;;5073502;28;20471;-84
2023/03/19 00:13:40;;;;;;;5.60;4.45;;;;;;;;;;5073624;28;20379;-83
2023/03/19 00:16:06;;;;;;;7.20;5.78;;;;;;;;;;5073340;28;20384;-84
2023/03/19 00:18:32;;;;;;;7.30;4.10;;;;;;;;;;5073446;28;20450;-82
2023/03/19 00:20:58;;;;;;;6.40;5.20;;;;;;;;;;5073160;28;20896;-84
2023/03/19 00:23:24;;;;;;;5.70;5.20;;;;;;;;;;5073163;28;20408;-82
2023/03/19 00:25:50;;;;;;;5.90;5.30;;;;;;;;;;5073363;28;20749;-84
2023/03/19 00:28:17;;;;;;;5.90;5.30;;;;;;;;;;5073359;28;20763;-84
2023/03/19 00:30:44;;;;;;;7.72;5.47;;;;;;;;;;5072762;28;20408;-83
2023/03/19 00:33:10;;;;;;;6.50;5.70;;;;;;;;;;5073116;28;20469;-84
2023/03/19 00:35:38;;;;;;;6.03;5.43;;;;;;;;;;5073071;28;20526;-84
2023/03/19 00:38:04;;;;;;;6.50;4.75;;;;;;;;;;5073102;28;20379;-84
2023/03/19 00:40:30;;;;;;;4.97;4.35;;;;;;;;;;5072786;28;20380;-84
2023/03/19 00:42:56;;;;;;;4.82;3.83;;;;;;;;;;5072720;28;20897;-83
2023/03/19 00:45:22;;;;;;;4.82;3.95;;;;;;;;;;5072812;28;20423;-84
2023/03/19 00:47:48;;;;;;;5.13;3.60;;;;;;;;;;5072764;28;20879;-83
2023/03/19 00:50:14;;;;;;;4.40;4.00;;;;;;;;;;5072771;28;20384;-84
2023/03/19 00:52:40;;;;;;;4.43;3.78;;;;;;;;;;5072824;28;20498;-83
2023/03/19 00:55:06;;;;;;;6.05;3.78;;;;;;;;;;5072577;28;20419;-83
2023/03/19 00:57:32;;;;;;;3.40;3.03;;;;;;;;;;5072030;28;20744;-82
2023/03/19 00:59:58;;;;;;;3.90;3.30;;;;;;;;;;5072632;28;20386;-84
2023/03/19 01:02:24;;;;;;;4.78;3.30;;;;;;;;;;5072394;28;20406;-84
2023/03/19 01:04:50;;;;;;;3.92;3.17;;;;;;;;;;5072507;28;20380;-82
2023/03/19 01:07:16;;;;;;;4.82;3.10;;;;;;;;;;5072458;28;20379;-84
2023/03/19 01:09:42;;;;;;;4.00;3.05;;;;;;;;;;5072385;28;20768;-83
2023/03/19 01:12:09;;;;;;;3.60;2.90;;;;;;;;;;5072291;28;20387;-84
2023/03/19 01:14:34;;;;;;;4.27;3.77;;;;;;;;;;5072126;28;20380;-82
2023/03/19 01:17:00;;;;;;;4.72;4.13;;;;;;;;;;5072227;28;20422;-84
2023/03/19 01:19:26;;;;;;;12.65;8.18;;;;;;;;;;5072075;28;20757;-84
2023/03/19 01:21:52;;;;;;;9.57;6.47;;;;;;;;;;5068820;28;20415;-82
2023/03/19 01:24:18;;;;;;;11.37;8.33;;;;;;;;;;5071741;28;20494;-83
2023/03/19 01:26:45;;;;;;;16.25;11.60;;;;;;;;;;5054077;28;20384;-82
2023/03/19 01:29:11;;;;;;;7.40;6.67;;;;;;;;;;5071908;28;20479;-83
2023/03/19 01:31:37;;;;;;;9.82;7.28;;;;;;;;;;5071218;28;20455;-83
2023/03/19 01:34:03;;;;;;;6.40;5.55;;;;;;;;;;5071700;28;20479;-82
2023/03/19 01:36:29;;;;;;;5.82;4.57;;;;;;;;;;5069730;28;20916;-82
2023/03/19 01:38:55;;;;;;;6.60;4.67;;;;;;;;;;5070110;28;20376;-82
2023/03/19 01:41:22;;;;;;;5.15;4.50;;;;;;;;;;5070154;28;20495;-82
2023/03/19 01:43:48;;;;;;;6.10;4.95;;;;;;;;;;5049543;28;20971;-82
2023/03/19 01:46:27;;;;;;;4.93;4.15;;;;;;;;;;5058621;28;20380;-82
2023/03/19 01:48:56;;;;;;;4.00;3.50;;;;;;;;;;5057155;28;20466;-83
2023/03/19 01:51:25;;;;;;;3.90;3.50;;;;;;;;;;5063268;28;20792;-83
2023/03/19 01:53:53;;;;;;;3.90;3.60;;;;;;;;;;5050914;28;20392;-82
2023/03/19 01:56:21;;;;;;;4.18;3.70;;;;;;;;;;5046625;28;20869;-83
2023/03/19 01:58:48;;;;;;;4.57;3.53;;;;;;;;;;5057922;28;20388;-83
2023/03/19 02:01:14;;;;;;;4.10;3.13;;;;;;;;;;5062222;28;20486;-83
2023/03/19 02:03:41;;;;;;;4.53;3.20;;;;;;;;;;5056180;28;20473;-83
2023/03/19 02:06:07;;;;;;;3.88;3.20;;;;;;;;;;5059471;28;20375;-83
2023/03/19 02:08:35;;;;;;;4.00;3.17;;;;;;;;;;5056613;28;20456;-83
2023/03/19 02:11:01;;;;;;;4.13;3.50;;;;;;;;;;5056799;28;20393;-83
2023/03/19 02:13:27;;;;;;;3.50;3.17;;;;;;;;;;5057518;28;20434;-82
2023/03/19 02:15:54;;;;;;;3.67;3.10;;;;;;;;;;5055123;28;20398;-82
2023/03/19 02:18:20;;;;;;;4.88;3.38;;;;;;;;;;5055618;28;20892;-82
2023/03/19 02:21:09;;;;;;;4.00;3.08;;;;;;;;;;5054032;28;20893;-83
2023/03/19 02:23:47;;;;;;;4.25;3.05;;;;;;;;;;5046014;28;20389;-82
2023/03/19 02:26:15;;;;;;;4.63;3.10;;;;;;;;;;5055339;28;20472;-83
2023/03/19 02:28:43;;;;;;;3.53;3.22;;;;;;;;;;5071101;28;20885;-82
2023/03/19 02:31:09;;;;;;;5.03;3.20;;;;;;;;;;5072005;28;20371;-83
2023/03/19 02:33:36;;;;;;;4.80;3.33;;;;;;;;;;5057585;28;20456;-83
2023/03/19 02:36:03;;;;;;;4.70;3.30;;;;;;;;;;5071470;28;20410;-83
2023/03/19 02:38:30;;;;;;;4.70;3.13;;;;;;;;;;5057118;28;20389;-82
2023/03/19 02:41:06;;;;;;;3.55;3.20;;;;;;;;;;5047314;28;20917;-82
2023/03/19 02:43:33;;;;;;;5.03;3.30;;;;;;;;;;5033029;28;20900;-83
2023/03/19 02:46:00;;;;;;;3.83;3.40;;;;;;;;;;5031361;28;20458;-83
2023/03/19 02:48:26;;;;;;;5.57;3.20;;;;;;;;;;5031230;28;20391;-83
2023/03/19 02:50:52;;;;;;;4.53;3.20;;;;;;;;;;5031101;28;20383;-83
2023/03/19 02:53:18;;;;;;;6.30;3.13;;;;;;;;;;5031004;28;20465;-83
2023/03/19 02:55:44;;;;;;;3.63;2.60;;;;;;;;;;5033086;28;20873;-83
2023/03/19 02:58:11;;;;;;;3.88;2.83;;;;;;;;;;5035132;28;20458;-83
2023/03/19 03:00:37;;;;;;;4.50;2.88;;;;;;;;;;5035170;28;20394;-83
2023/03/19 03:03:05;;;;;;;3.15;2.72;;;;;;;;;;5034930;28;20808;-83
2023/03/19 03:05:31;;;;;;;3.30;2.88;;;;;;;;;;5034979;28;20385;-83
2023/03/19 03:07:57;;;;;;;3.40;2.90;;;;;;;;;;5040003;28;20379;-83
2023/03/19 03:10:23;;;;;;;3.95;2.90;;;;;;;;;;5035123;28;20375;-83
2023/03/19 03:12:50;;;;;;;3.20;2.90;;;;;;;;;;5034636;28;20865;-83
2023/03/19 03:15:16;;;;;;;3.53;3.05;;;;;;;;;;5027564;28;20402;-83
2023/03/19 03:17:43;;;;;;;3.00;2.40;;;;;;;;;;5018067;28;20486;-83
2023/03/19 03:20:10;;;;;;;3.47;2.70;;;;;;;;;;5039195;28;20418;-83
2023/03/19 03:22:36;;;;;;;3.40;2.80;;;;;;;;;;5034011;28;20406;-83
2023/03/19 03:25:03;;;;;;;4.00;3.10;;;;;;;;;;5034563;28;20403;-83
2023/03/19 03:27:29;;;;;;;6.32;3.20;;;;;;;;;;5034601;28;20466;-83
2023/03/19 03:29:55;;;;;;;4.70;3.10;;;;;;;;;;5034183;28;20391;-83
2023/03/19 03:32:21;;;;;;;3.33;2.80;;;;;;;;;;5033574;28;20445;-83
2023/03/19 03:34:47;;;;;;;4.20;2.80;;;;;;;;;;5034420;28;20383;-83
2023/03/19 03:37:13;;;;;;;3.55;2.78;;;;;;;;;;5034100;28;20740;-84
2023/03/19 03:39:39;;;;;;;4.90;2.93;;;;;;;;;;5034261;28;20385;-83
2023/03/19 03:42:05;;;;;;;3.70;2.90;;;;;;;;;;5033879;28;20442;-84
2023/03/19 03:44:33;;;;;;;2.95;2.65;;;;;;;;;;5033777;28;20465;-83
2023/03/19 03:46:59;;;;;;;3.70;3.20;;;;;;;;;;5034008;28;20865;-83
2023/03/19 03:49:25;;;;;;;3.13;2.83;;;;;;;;;;5033631;28;20383;-83
2023/03/19 03:51:51;;;;;;;3.80;2.80;;;;;;;;;;5033745;28;20868;-83
2023/03/19 03:54:17;;;;;;;4.40;2.70;;;;;;;;;;5033786;28;20381;-83
2023/03/19 03:56:43;;;;;;;3.35;2.83;;;;;;;;;;5033852;28;20379;-83
2023/03/19 03:59:09;;;;;;;3.60;3.10;;;;;;;;;;5033694;28;20371;-83
2023/03/19 04:01:36;;;;;;;4.43;3.00;;;;;;;;;;5033657;28;20403;-83
2023/03/19 04:04:02;;;;;;;4.55;3.10;;;;;;;;;;5033698;28;20470;-83
2023/03/19 04:06:28;;;;;;;3.30;2.67;;;;;;;;;;5033115;28;20375;-83
2023/03/19 04:08:54;;;;;;;5.00;3.30;;;;;;;;;;5033619;28;20387;-83
2023/03/19 04:11:20;;;;;;;3.20;2.90;;;;;;;;;;5033484;28;20447;-83
2023/03/19 04:13:46;;;;;;;3.20;2.83;;;;;;;;;;5033602;28;20379;-83
2023/03/19 04:16:14;;;;;;;3.78;2.80;;;;;;;;;;5033412;28;20403;-83
2023/03/19 04:18:40;;;;;;;5.07;3.10;;;;;;;;;;5033500;28;20391;-83
2023/03/19 04:21:07;;;;;;;3.20;2.55;;;;;;;;;;5033342;28;20418;-83
2023/03/19 04:23:33;;;;;;;3.75;2.85;;;;;;;;;;5033315;28;20382;-83
2023/03/19 04:26:01;;;;;;;3.75;2.72;;;;;;;;;;5033412;28;20376;-83
2023/03/19 04:28:27;;;;;;;4.22;3.08;;;;;;;;;;5033077;28;20390;-83
2023/03/19 04:30:58;;;;;;;3.63;2.60;;;;;;;;;;5032982;28;20387;-83
2023/03/19 04:33:24;;;;;;;3.25;2.45;;;;;;;;;;5033081;28;20384;-83
2023/03/19 04:35:50;;;;;;;4.35;2.80;;;;;;;;;;5033192;28;20383;-83
2023/03/19 04:38:17;;;;;;;3.33;2.90;;;;;;;;;;5033154;28;20470;-83
2023/03/19 04:40:43;;;;;;;3.00;2.65;;;;;;;;;;5032941;28;20411;-83
2023/03/19 04:43:09;;;;;;;3.57;2.57;;;;;;;;;;5060859;28;20457;-83
2023/03/19 04:45:35;;;;;;;3.15;2.50;;;;;;;;;;5072735;28;20384;-83
2023/03/19 04:48:02;;;;;;;3.97;2.40;;;;;;;;;;5072889;28;20613;-83
2023/03/19 04:50:29;;;;;;;3.78;2.60;;;;;;;;;;5054767;28;20395;-84
2023/03/19 04:52:55;;;;;;;4.28;2.88;;;;;;;;;;5072673;28;20380;-84
2023/03/19 04:55:22;;;;;;;4.15;2.85;;;;;;;;;;5054724;28;20760;-83
2023/03/19 04:57:48;;;;;;;4.30;2.50;;;;;;;;;;5072561;28;20415;-83
2023/03/19 05:00:15;;;;;;;3.05;2.60;;;;;;;;;;5072627;28;20407;-84
2023/03/19 05:02:41;;;;;;;3.20;2.33;;;;;;;;;;5072367;28;20415;-84
2023/03/19 05:05:08;;;;;;;2.63;2.35;;;;;;;;;;5072046;28;20460;-84
2023/03/19 05:07:34;;;;;;;3.28;2.75;;;;;;;;;;5071422;28;20372;-83
2023/03/19 05:10:00;;;;;;;4.88;2.75;;;;;;;;;;5071158;28;20376;-83
2023/03/19 05:12:26;;;;;;;3.03;2.50;;;;;;;;;;5062565;28;20382;-83
2023/03/19 05:14:52;;;;;;;3.10;2.60;;;;;;;;;;5057317;28;20480;-83
2023/03/19 05:17:18;;;;;;;3.53;2.58;;;;;;;;;;5055482;28;20385;-83
2023/03/19 05:19:44;;;;;;;2.85;2.55;;;;;;;;;;5067334;28;20977;-83
2023/03/19 05:22:10;;;;;;;4.07;2.63;;;;;;;;;;5057183;28;20494;-84
2023/03/19 05:24:37;;;;;;;4.22;2.60;;;;;;;;;;5071877;28;20429;-84
2023/03/19 05:27:03;;;;;;;3.22;2.85;;;;;;;;;;5071574;28;20427;-83
2023/03/19 05:29:29;;;;;;;4.13;2.80;;;;;;;;;;5070672;28;20733;-84
2023/03/19 05:31:55;;;;;;;4.20;3.03;;;;;;;;;;5070049;28;20403;-84
2023/03/19 05:34:21;;;;;;;3.17;2.88;;;;;;;;;;5067244;28;20853;-84
2023/03/19 05:36:47;;;;;;;4.93;3.33;;;;;;;;;;5067063;28;20480;-83
2023/03/19 05:39:13;;;;;;;4.32;3.55;;;;;;;;;;5071959;28;20415;-83
2023/03/19 05:41:39;;;;;;;4.35;3.80;;;;;;;;;;5071394;28;20427;-83
2023/03/19 05:44:05;;;;;;;3.97;3.42;;;;;;;;;;5060349;28;20384;-82
2023/03/19 05:46:31;;;;;;;5.35;3.70;;;;;;;;;;5077442;28;20390;-83
2023/03/19 05:48:57;;;;;;;3.72;3.40;;;;;;;;;;5072913;28;20470;-84
2023/03/19 05:51:23;;;;;;;3.63;3.20;;;;;;;;;;5071836;28;20388;-85
2023/03/19 05:53:49;;;;;;;4.50;3.50;;;;;;;;;;5071238;28;20383;-85
2023/03/19 05:56:15;;;;;;;3.63;3.33;;;;;;;;;;5070929;28;20380;-84
2023/03/19 05:58:41;;;;;;;4.43;3.85;;;;;;;;;;5070728;28;20744;-85
2023/03/19 06:01:07;;;;;;;4.30;3.90;;;;;;;;;;5070188;28;20494;-83
2023/03/19 06:03:33;;;;;;;4.10;3.70;;;;;;;;;;5070670;28;20963;-83
2023/03/19 06:06:00;;;;;;;4.50;4.10;;;;;;;;;;5060359;28;20396;-83
2023/03/19 06:08:26;;;;;;;4.25;3.85;;;;;;;;;;5055903;28;20389;-83
2023/03/19 06:10:53;;;;;;;4.68;4.28;;;;;;;;;;5060546;28;20436;-81
2023/03/19 06:13:19;;;;;;;6.10;5.18;;;;;;;;;;5069984;28;20451;-84
2023/03/19 06:15:45;;;;;;;4.57;3.97;;;;;;;;;;5068355;28;20498;-82
2023/03/19 06:18:11;;;;;;;5.88;4.93;;;;;;;;;;5066005;28;20562;-82
2023/03/19 06:20:37;;;;;;;3.67;3.37;;;;;;;;;;5067384;28;20425;-83
2023/03/19 06:23:03;;;;;;;3.33;3.03;;;;;;;;;;5070618;28;20768;-81
2023/03/19 06:25:29;;;;;;;4.97;3.22;;;;;;;;;;5071114;28;20380;-79
2023/03/19 06:27:55;;;;;;;4.50;3.92;;;;;;;;;;5071196;28;20790;-79
2023/03/19 06:30:21;;;;;;;4.90;3.43;;;;;;;;;;5065831;28;20425;-79
2023/03/19 06:32:47;;;;;;;4.25;3.40;;;;;;;;;;5070967;28;20849;-80
2023/03/19 06:35:13;;;;;;;4.53;3.70;;;;;;;;;;5070986;28;20380;-79
2023/03/19 06:37:39;;;;;;;5.47;4.00;;;;;;;;;;5071031;28;20387;-81
2023/03/19 06:40:05;;;;;;;4.13;3.72;;;;;;;;;;5070932;28;20918;-83
2023/03/19 06:42:31;;;;;;;5.07;4.22;;;;;;;;;;5068045;28;20464;-83
2023/03/19 06:44:57;;;;;;;4.65;4.15;;;;;;;;;;5070888;28;20375;-80
2023/03/19 06:47:23;;;;;;;4.70;4.20;;;;;;;;;;5070878;28;20383;-82
2023/03/19 06:49:49;;;;;;;3.53;3.22;;;;;;;;;;5070964;28;20386;-85
2023/03/19 06:52:15;;;;;;;3.90;3.50;;;;;;;;;;5052966;28;20728;-83
2023/03/19 06:54:41;;;;;;;4.13;3.70;;;;;;;;;;5065960;28;20387;-83
2023/03/19 06:57:07;;;;;;;4.07;3.55;;;;;;;;;;5070638;28;20441;-82
2023/03/19 06:59:33;;;;;;;4.35;3.72;;;;;;;;;;5070184;28;20479;-83
2023/03/19 07:01:59;;;;;;;4.05;3.20;;;;;;;;;;5052614;28;20772;-83
2023/03/19 07:04:25;;;;;;;3.55;3.25;;;;;;;;;;5070748;28;20425;-84
2023/03/19 07:06:51;;;;;;;4.00;3.20;;;;;;;;;;5070583;28;20877;-84
2023/03/19 07:09:17;;;;;;;6.10;5.10;;;;;;;;;;5069525;28;20380;-82
2023/03/19 07:11:43;;;;;;;71.93;60.00;;;;;;;;;;5062601;28;20419;-86
2023/03/19 07:14:10;;;;;;;48.10;43.20;;;;;;;;;;5049988;28;20436;-85
2023/03/19 07:16:36;;;;;;;7.65;6.95;;;;;;;;;;5050443;28;20392;-86
2023/03/19 07:19:02;;;;;;;6.70;6.00;;;;;;;;;;5070090;28;20471;-85
2023/03/19 07:21:28;;;;;;;6.20;5.63;;;;;;;;;;5070038;28;20414;-86
2023/03/19 07:23:54;;;;;;;5.27;4.60;;;;;;;;;;5069339;28;20372;-85
2023/03/19 07:26:20;;;;;;;4.55;4.15;;;;;;;;;;5070652;28;20368;-85
2023/03/19 07:28:47;;;;;;;5.15;4.20;;;;;;;;;;5070468;28;20394;-85
2023/03/19 07:31:13;;;;;;;4.50;4.10;;;;;;;;;;5070442;28;20403;-85
2023/03/19 07:33:39;;;;;;;5.37;4.23;;;;;;;;;;5070462;28;20383;-85
2023/03/19 07:36:06;;;;;;;4.32;3.92;;;;;;;;;;5070490;28;20867;-86
2023/03/19 07:38:32;;;;;;;4.72;4.00;;;;;;;;;;5070047;28;20471;-85
2023/03/19 07:40:58;;;;;;;4.35;3.70;;;;;;;;;;5070998;28;20490;-85
2023/03/19 07:43:24;;;;;;;3.78;3.47;;;;;;;;;;5056003;28;20399;-85
2023/03/19 07:45:50;;;;;;;4.28;3.90;;;;;;;;;;5073850;28;20376;-86
2023/03/19 07:48:16;;;;;;;6.03;4.10;;;;;;;;;;5074013;28;20455;-85
2023/03/19 07:50:42;;;;;;;5.07;3.85;;;;;;;;;;5073788;28;20384;-85
2023/03/19 07:53:08;;;;;;;4.22;3.78;;;;;;;;;;5073827;28;20914;-85
2023/03/19 07:55:35;;;;;;;4.40;4.00;;;;;;;;;;5073553;28;20419;-85
2023/03/19 07:58:01;;;;;;;4.00;3.70;;;;;;;;;;5073852;28;20483;-85
2023/03/19 08:00:27;;;;;;;4.95;4.47;;;;;;;;;;5073815;28;20412;-85
2023/03/19 08:02:53;;;;;;;4.10;3.70;;;;;;;;;;5055503;28;20403;-85
2023/03/19 08:05:19;;;;;;;4.23;3.83;;;;;;;;;;5073208;28;20944;-86
2023/03/19 08:07:46;;;;;;;5.07;3.70;;;;;;;;;;5073423;28;20379;-85
2023/03/19 08:10:12;;;;;;;4.20;3.90;;;;;;;;;;5073627;28;20380;-85
2023/03/19 08:12:41;;;;;;;6.00;3.75;;;;;;;;;;5055429;28;20857;-85
2023/03/19 08:15:08;;;;;;;4.35;3.95;;;;;;;;;;5073518;28;20390;-85
2023/03/19 08:17:37;;;;;;;5.18;4.30;;;;;;;;;;5073327;28;20387;-87
2023/03/19 08:20:04;;;;;;;4.50;3.72;;;;;;;;;;5073344;28;20859;-85
2023/03/19 08:22:30;;;;;;;7.38;4.43;;;;;;;;;;5073167;28;20903;-85
2023/03/19 08:24:55;;;;;;;5.65;4.00;;;;;;;;;;5073177;28;20379;-85
2023/03/19 08:27:21;;;;;;;4.40;4.00;;;;;;;;;;5073085;28;21058;-85
2023/03/19 08:29:47;;;;;;;5.45;4.32;;;;;;;;;;5073232;28;20375;-84
2023/03/19 08:32:14;;;;;;;7.80;5.40;;;;;;;;;;5073131;28;20420;-86
2023/03/19 08:34:40;;;;;;;4.93;4.40;;;;;;;;;;5073441;28;20816;-86
2023/03/19 08:37:06;;;;;;;5.72;4.70;;;;;;;;;;5073070;28;20383;-86
2023/03/19 08:39:32;;;;;;;6.05;4.93;;;;;;;;;;5073155;28;20930;-86
2023/03/19 08:41:58;;;;;;;5.40;4.88;;;;;;;;;;5055055;28;20451;-86
2023/03/19 08:44:24;;;;;;;5.75;5.13;;;;;;;;;;5073068;28;20871;-86
2023/03/19 08:46:50;;;;;;;7.22;5.57;;;;;;;;;;5072991;28;20383;-86
2023/03/19 08:49:16;;;;;;;9.20;5.40;;;;;;;;;;5072727;28;20461;-86
2023/03/19 08:51:42;;;;;;;8.35;5.45;;;;;;;;;;5072769;28;20475;-87
2023/03/19 08:54:10;;;;;;;7.30;5.40;;;;;;;;;;5072797;28;20386;-86
2023/03/19 08:56:36;;;;;;;9.73;6.20;;;;;;;;;;5074760;28;20467;-87
2023/03/19 08:59:02;;;;;;;9.53;6.37;;;;;;;;;;5079597;28;20450;-86
2023/03/19 09:01:28;;;;;;;12.00;6.40;;;;;;;;;;5080804;28;20469;-86
2023/03/19 09:03:54;;;;;;;7.68;5.05;;;;;;;;;;5092018;28;20433;-85
2023/03/19 09:06:20;;;;;;;5.43;4.60;;;;;;;;;;5088933;28;20380;-86
2023/03/19 09:08:46;;;;;;;4.85;3.70;;;;;;;;;;5077404;28;20410;-86
2023/03/19 09:11:13;;;;;;;4.45;3.70;;;;;;;;;;5074070;28;20391;-86
2023/03/19 09:13:39;;;;;;;5.20;3.55;;;;;;;;;;5073032;28;20453;-87
2023/03/19 09:16:05;;;;;;;6.93;3.75;;;;;;;;;;5072490;28;20376;-86
2023/03/19 09:18:32;;;;;;;4.43;3.60;;;;;;;;;;5072651;28;20395;-87
2023/03/19 09:20:59;;;;;;;4.03;3.63;;;;;;;;;;5072283;28;20754;-87
2023/03/19 09:23:25;;;;;;;6.00;4.47;;;;;;;;;;5074468;28;20376;-86
2023/03/19 09:25:53;;;;;;;3.88;3.50;;;;;;;;;;5072430;28;20383;-86
2023/03/19 09:28:19;;;;;;;4.25;3.53;;;;;;;;;;5072079;28;20376;-87
2023/03/19 09:30:46;;;;;;;4.78;3.35;;;;;;;;;;5054225;28;20895;-86
2023/03/19 09:33:13;;;;;;;4.90;3.20;;;;;;;;;;5072168;28;20380;-87
2023/03/19 09:35:39;;;;;;;3.42;3.10;;;;;;;;;;5071892;28;20775;-86
2023/03/19 09:38:05;;;;;;;4.00;3.40;;;;;;;;;;5072015;28;20383;-86
2023/03/19 09:40:45;;;;;;;3.05;2.83;;;;;;;;;;5071974;28;20388;-87
2023/03/19 09:43:29;;;;;;;4.30;3.05;;;;;;;;;;5071488;28;20523;-86
2023/03/19 09:45:56;;;;;;;4.07;3.20;;;;;;;;;;5071278;28;21060;-86
2023/03/19 09:48:38;;;;;;;3.63;2.92;;;;;;;;;;5071952;28;20375;-86
2023/03/19 09:51:06;;;;;;;4.28;3.10;;;;;;;;;;5040251;28;20483;-87
2023/03/19 09:53:36;;;;;;;3.50;2.90;;;;;;;;;;5071847;28;20808;-87
2023/03/19 09:56:04;;;;;;;3.43;3.07;;;;;;;;;;5054099;28;20967;-86
2023/03/19 09:58:32;;;;;;;4.10;3.30;;;;;;;;;;5079244;28;20384;-86
2023/03/19 10:00:59;;;;;;;3.88;3.22;;;;;;;;;;5072392;28;20398;-87
2023/03/19 10:03:38;;;;;;;3.28;2.97;;;;;;;;;;5077664;28;20388;-87
2023/03/19 10:06:13;;;;;;;4.03;3.03;;;;;;;;;;5072540;28;20857;-86
2023/03/19 10:09:02;;;;;;;3.63;2.80;;;;;;;;;;5075692;28;20383;-86
2023/03/19 10:11:37;;;;;;;3.42;2.47;;;;;;;;;;5061656;28;20423;-86
2023/03/19 10:14:11;;;;;;;3.40;3.10;;;;;;;;;;5071700;28;20416;-87
2023/03/19 10:16:39;;;;;;;3.30;2.40;;;;;;;;;;5072137;28;20372;-86
2023/03/19 10:19:05;;;;;;;3.35;2.47;;;;;;;;;;5071751;28;20722;-86
2023/03/19 10:21:38;;;;;;;4.22;2.90;;;;;;;;;;5071247;28;20400;-86
2023/03/19 10:24:08;;;;;;;2.67;2.33;;;;;;;;;;5072141;28;20379;-86
2023/03/19 10:26:35;;;;;;;3.72;2.63;;;;;;;;;;5071896;28;21167;-86
2023/03/19 10:29:12;;;;;;;3.15;2.55;;;;;;;;;;5071824;28;20407;-86
2023/03/19 10:31:44;;;;;;;4.10;2.70;;;;;;;;;;5071197;28;20853;-85
2023/03/19 10:34:30;;;;;;;4.07;2.13;;;;;;;;;;5071239;28;20372;-84
2023/03/19 10:37:00;;;;;;;2.80;2.33;;;;;;;;;;5071588;28;20383;-85
2023/03/19 10:39:27;;;;;;;3.28;2.42;;;;;;;;;;5071375;28;20383;-87
2023/03/19 10:42:00;;;;;;;3.00;2.40;;;;;;;;;;5070938;28;20412;-86
2023/03/19 10:44:38;;;;;;;4.40;2.28;;;;;;;;;;5071061;28;20440;-86
2023/03/19 10:47:14;;;;;;;2.47;2.00;;;;;;;;;;5071119;28;20434;-87
2023/03/19 10:49:41;;;;;;;5.35;2.28;;;;;;;;;;5071536;28;20717;-86
2023/03/19 10:52:17;;;;;;;3.38;2.35;;;;;;;;;;5070920;28;20387;-86
2023/03/19 10:54:44;;;;;;;3.27;2.20;;;;;;;;;;5071413;28;20841;-87
2023/03/19 10:57:21;;;;;;;3.75;2.30;;;;;;;;;;5071177;28;20432;-86
2023/03/19 10:59:47;;;;;;;3.47;2.10;;;;;;;;;;5071293;28;20509;-86
2023/03/19 11:02:18;;;;;;;3.17;2.53;;;;;;;;;;5071241;28;20478;-87
2023/03/19 11:04:45;;;;;;;2.53;2.13;;;;;;;;;;5071538;28;20763;-86
2023/03/19 11:07:12;;;;;;;3.97;2.13;;;;;;;;;;5071078;28;20410;-85
2023/03/19 11:09:40;;;;;;;2.75;1.90;;;;;;;;;;5071201;28;20440;-86
2023/03/19 11:12:25;;;;;;;3.33;1.85;;;;;;;;;;5071084;28;20383;-86
2023/03/19 11:14:51;;;;;;;3.05;1.80;;;;;;;;;;5071530;28;20414;-86
2023/03/19 11:17:22;;;;;;;4.57;2.13;;;;;;;;;;5073624;28;20379;-86
2023/03/19 11:19:56;;;;;;;3.47;1.90;;;;;;;;;;5074707;28;20376;-87
2023/03/19 11:22:22;;;;;;;2.92;2.10;;;;;;;;;;5075272;28;20415;-86
2023/03/19 11:24:55;;;;;;;2.30;2.10;;;;;;;;;;5074829;28;20375;-86
2023/03/19 11:27:34;;;;;;;3.13;2.00;;;;;;;;;;5061353;28;20903;-87
2023/03/19 11:30:01;;;;;;;2.72;1.85;;;;;;;;;;5074496;28;21008;-88
2023/03/19 11:32:39;;;;;;;3.00;2.00;;;;;;;;;;5074313;28;20372;-87
2023/03/19 11:35:17;;;;;;;2.47;2.00;;;;;;;;;;5075744;28;20380;-86
2023/03/19 11:37:43;;;;;;;3.55;2.20;;;;;;;;;;5075210;28;20371;-86
2023/03/19 11:40:09;;;;;;;4.22;2.10;;;;;;;;;;5074285;28;20390;-86
2023/03/19 11:42:41;;;;;;;4.00;1.83;;;;;;;;;;5074004;28;20445;-86
2023/03/19 11:45:13;;;;;;;3.40;2.30;;;;;;;;;;5074173;28;20371;-85
2023/03/19 11:47:39;;;;;;;4.55;2.10;;;;;;;;;;5055794;28;20463;-86
2023/03/19 11:50:17;;;;;;;3.27;2.43;;;;;;;;;;5073782;28;20566;-86
2023/03/19 11:53:01;;;;;;;3.08;1.85;;;;;;;;;;5073852;28;20725;-88
2023/03/19 11:58:08;;;;;;;3.45;1.88;;;;;;;;;;5032451;28;20442;-80
2023/03/19 12:00:38;;;;;;;5.03;2.20;;;;;;;;;;5034083;28;20379;-81
2023/03/19 12:03:23;;;;;;;3.17;1.90;;;;;;;;;;5033558;28;20407;-80
2023/03/19 12:05:53;;;;;;;3.13;2.30;;;;;;;;;;5033237;28;20367;-80
2023/03/19 12:08:38;;;;;;;2.50;1.80;;;;;;;;;;5033696;28;20387;-80
2023/03/19 12:11:13;;;;;;;3.10;1.80;;;;;;;;;;5033669;28;20436;-80
2023/03/19 12:13:51;;;;;;;2.33;2.00;;;;;;;;;;5033705;28;20382;-81
2023/03/19 12:16:17;;;;;;;3.42;2.00;;;;;;;;;;5030098;28;20416;-80
2023/03/19 12:18:50;;;;;;;3.08;2.08;;;;;;;;;;5023266;28;20391;-80
2023/03/19 12:21:26;;;;;;;5.43;2.10;;;;;;;;;;5033415;28;20453;-80
2023/03/19 12:23:55;;;;;;;2.60;1.73;;;;;;;;;;5033220;28;20872;-80
2023/03/19 12:26:44;;;;;;;2.72;1.80;;;;;;;;;;5033150;28;20386;-81
2023/03/19 12:29:37;;;;;;;2.55;1.88;;;;;;;;;;5023497;28;20380;-80
2023/03/19 12:32:18;;;;;;;3.45;1.98;;;;;;;;;;5031540;28;20395;-80
2023/03/19 12:34:47;;;;;;;3.72;1.83;;;;;;;;;;5036239;28;20383;-80
2023/03/19 12:37:17;;;;;;;3.13;1.90;;;;;;;;;;5034600;28;20383;-80
2023/03/19 12:39:52;;;;;;;2.25;1.80;;;;;;;;;;5034088;28;20413;-81
2023/03/19 12:42:19;;;;;;;1.98;1.77;;;;;;;;;;5033459;28;20514;-81
2023/03/19 12:44:47;;;;;;;3.75;2.00;;;;;;;;;;5033574;28;20379;-81
2023/03/19 12:47:21;;;;;;;1.95;1.70;;;;;;;;;;5033273;28;20403;-81
2023/03/19 12:49:51;;;;;;;3.60;2.03;;;;;;;;;;5033365;28;20427;-80
2023/03/19 12:52:20;;;;;;;3.15;1.77;;;;;;;;;;5033567;28;20379;-80
2023/03/19 12:55:18;;;;;;;2.75;1.65;;;;;;;;;;5033487;28;20379;-80
2023/03/19 12:57:47;;;;;;;3.30;1.80;;;;;;;;;;5020734;28;20442;-80
2023/03/19 13:00:17;;;;;;;2.53;1.77;;;;;;;;;;5033034;28;20383;-81
2023/03/19 13:02:49;;;;;;;2.35;1.63;;;;;;;;;;5033029;28;20399;-80
2023/03/19 13:05:26;;;;;;;3.90;2.15;;;;;;;;;;5033384;28;20729;-80
2023/03/19 13:08:12;;;;;;;3.45;2.00;;;;;;;;;;5032589;28;20895;-80
2023/03/19 13:10:38;;;;;;;2.95;1.90;;;;;;;;;;5032832;28;20375;-81
2023/03/19 13:13:17;;;;;;;4.05;1.83;;;;;;;;;;5032712;28;20857;-81
2023/03/19 13:15:47;;;;;;;3.75;1.85;;;;;;;;;;5032678;28;20375;-80
2023/03/19 13:18:13;;;;;;;3.55;1.88;;;;;;;;;;5032514;28;20383;-80
2023/03/19 13:20:57;;;;;;;2.72;1.70;;;;;;;;;;5031611;28;20391;-81
2023/03/19 13:23:34;;;;;;;2.83;1.75;;;;;;;;;;5032320;28;20406;-80
2023/03/19 13:26:03;;;;;;;4.00;2.20;;;;;;;;;;5032370;28;20436;-81
2023/03/19 13:28:34;;;;;;;2.40;1.75;;;;;;;;;;5032490;28;20379;-80
2023/03/19 13:31:07;;;;;;;3.47;2.30;;;;;;;;;;5032461;28;20380;-80
2023/03/19 13:33:34;;;;;;;4.25;2.40;;;;;;;;;;5032153;28;20418;-80
2023/03/19 13:36:03;;;;;;;3.15;2.30;;;;;;;;;;5032522;28;20402;-80
2023/03/19 13:38:39;;;;;;;3.17;2.50;;;;;;;;;;5031410;28;20398;-83
2023/03/19 13:41:23;;;;;;;3.08;2.33;;;;;;;;;;5032239;28;20388;-80
2023/03/19 13:43:53;;;;;;;4.82;2.50;;;;;;;;;;5031077;28;20398;-81
2023/03/19 13:46:21;;;;;;;3.33;2.10;;;;;;;;;;5030246;28;20390;-80
2023/03/19 13:48:47;;;;;;;4.43;2.08;;;;;;;;;;5032239;28;20840;-80
2023/03/19 13:51:22;;;;;;;3.50;2.10;;;;;;;;;;5031998;28;20437;-80
2023/03/19 13:53:51;;;;;;;3.65;2.00;;;;;;;;;;5022385;28;20388;-80
2023/03/19 13:56:18;;;;;;;2.87;1.73;;;;;;;;;;5031451;28;20407;-80
2023/03/19 13:59:13;;;;;;;3.80;2.08;;;;;;;;;;5031833;28;20398;-80
2023/03/19 14:01:40;;;;;;;2.70;2.00;;;;;;;;;;5031693;28;20407;-80
2023/03/19 14:04:16;;;;;;;2.65;1.92;;;;;;;;;;5031639;28;20462;-81
2023/03/19 14:06:47;;;;;;;2.63;2.00;;;;;;;;;;5031797;28;20387;-80
2023/03/19 14:09:31;;;;;;;1.90;1.80;;;;;;;;;;5031436;28;20733;-80
2023/03/19 14:12:15;;;;;;;3.15;2.13;;;;;;;;;;5031582;28;20436;-80
2023/03/19 14:14:46;;;;;;;2.50;2.00;;;;;;;;;;5031346;28;20409;-80
2023/03/19 14:17:14;;;;;;;2.23;1.80;;;;;;;;;;5028900;28;20422;-80
2023/03/19 14:19:41;;;;;;;2.38;1.73;;;;;;;;;;5030090;28;20398;-80
2023/03/19 14:22:16;;;;;;;3.90;2.00;;;;;;;;;;5031363;28;20468;-81
2023/03/19 14:24:53;;;;;;;2.80;1.90;;;;;;;;;;5031720;28;20379;-80
2023/03/19 14:27:25;;;;;;;2.17;1.67;;;;;;;;;;5031367;28;20509;-80
2023/03/19 14:29:53;;;;;;;4.82;3.10;;;;;;;;;;5030688;28;20462;-80
2023/03/19 14:32:21;;;;;;;3.83;2.30;;;;;;;;;;5030635;28;20386;-80
2023/03/19 14:34:48;;;;;;;4.00;2.38;;;;;;;;;;5031267;28;20872;-80
2023/03/19 14:37:24;;;;;;;2.92;1.90;;;;;;;;;;5031019;28;20391;-80
2023/03/19 14:39:57;;;;;;;3.55;2.40;;;;;;;;;;5031230;28;20379;-80
2023/03/19 14:42:41;;;;;;;3.10;2.53;;;;;;;;;;5031052;28;20410;-80
2023/03/19 14:45:18;;;;;;;3.20;1.77;;;;;;;;;;5031164;28;20391;-80
2023/03/19 14:47:56;;;;;;;2.85;1.95;;;;;;;;;;5031120;28;20728;-79
2023/03/19 14:50:31;;;;;;;5.10;2.47;;;;;;;;;;5032390;28;20375;-79
2023/03/19 14:53:14;;;;;;;2.42;1.83;;;;;;;;;;5035136;28;20449;-80
2023/03/19 14:55:40;;;;;;;4.28;2.35;;;;;;;;;;5034952;28;20728;-79